sensor_id;sensor_type;location;lat;lon;timestamp;P1;durP1;ratioP1;P2;durP2;ratioP2
54197;SDS011;40105;52.366;17.000;2023-06-14T00:01:13;9.73;;;6.27;;
54197;SDS011;40105;52.366;17.000;2023-06-14T00:03:38;16.10;;;7.07;;
54197;SDS011;40105;52.366;17.000;2023-06-14T00:06:04;11.63;;;7.60;;
54197;SDS011;40105;52.366;17.000;2023-06-14T00:08:29;12.07;;;6.88;;
54197;SDS011;40105;52.366;17.000;2023-06-14T00:10:55;10.70;;;6.45;;
54197;SDS011;40105;52.366;17.000;2023-06-14T00:13:20;9.40;;;6.23;;
54197;SDS011;40105;52.366;17.000;2023-06-14T00:15:45;16.73;;;7.75;;
54197;SDS011;40105;52.366;17.000;2023-06-14T00:18:12;12.57;;;6.65;;
54197;SDS011;40105;52.366;17.000;2023-06-14T00:20:37;11.65;;;6.32;;
54197;SDS011;40105;52.366;17.000;2023-06-14T00:23:04;10.50;;;6.68;;
54197;SDS011;40105;52.366;17.000;2023-06-14T00:25:29;10.38;;;6.28;;
54197;SDS011;40105;52.366;17.000;2023-06-14T00:27:55;9.93;;;6.85;;
54197;SDS011;40105;52.366;17.000;2023-06-14T00:30:21;10.52;;;5.90;;
54197;SDS011;40105;52.366;17.000;2023-06-14T00:32:46;12.60;;;6.75;;
54197;SDS011;40105;52.366;17.000;2023-06-14T00:35:12;11.60;;;6.97;;
54197;SDS011;40105;52.366;17.000;2023-06-14T00:37:37;10.15;;;5.85;;
54197;SDS011;40105;52.366;17.000;2023-06-14T00:40:03;8.23;;;5.90;;
54197;SDS011;40105;52.366;17.000;2023-06-14T00:42:29;13.98;;;6.70;;
54197;SDS011;40105;52.366;17.000;2023-06-14T00:44:55;14.57;;;6.63;;
54197;SDS011;40105;52.366;17.000;2023-06-14T00:47:20;9.18;;;5.53;;
54197;SDS011;40105;52.366;17.000;2023-06-14T00:49:46;10.88;;;5.85;;
54197;SDS011;40105;52.366;17.000;2023-06-14T00:52:12;9.65;;;5.72;;
54197;SDS011;40105;52.366;17.000;2023-06-14T00:54:39;10.40;;;6.22;;
54197;SDS011;40105;52.366;17.000;2023-06-14T00:57:05;11.50;;;6.47;;
54197;SDS011;40105;52.366;17.000;2023-06-14T00:59:31;7.90;;;4.88;;
54197;SDS011;40105;52.366;17.000;2023-06-14T01:01:56;11.45;;;5.47;;
54197;SDS011;40105;52.366;17.000;2023-06-14T01:04:21;8.57;;;5.78;;
54197;SDS011;40105;52.366;17.000;2023-06-14T01:09:52;10.82;;;5.65;;
54197;SDS011;40105;52.366;17.000;2023-06-14T01:12:23;7.13;;;4.63;;
54197;SDS011;40105;52.366;17.000;2023-06-14T01:14:50;10.32;;;5.35;;
54197;SDS011;40105;52.366;17.000;2023-06-14T01:17:17;14.52;;;4.82;;
54197;SDS011;40105;52.366;17.000;2023-06-14T01:19:43;6.88;;;4.57;;
54197;SDS011;40105;52.366;17.000;2023-06-14T01:22:09;12.13;;;5.10;;
54197;SDS011;40105;52.366;17.000;2023-06-14T01:24:35;7.75;;;4.95;;
54197;SDS011;40105;52.366;17.000;2023-06-14T01:27:00;9.35;;;4.50;;
54197;SDS011;40105;52.366;17.000;2023-06-14T01:29:27;9.43;;;4.65;;
54197;SDS011;40105;52.366;17.000;2023-06-14T01:31:58;10.15;;;4.07;;
54197;SDS011;40105;52.366;17.000;2023-06-14T01:34:26;6.85;;;4.25;;
54197;SDS011;40105;52.366;17.000;2023-06-14T01:36:51;8.27;;;4.25;;
54197;SDS011;40105;52.366;17.000;2023-06-14T01:39:17;7.60;;;4.80;;
54197;SDS011;40105;52.366;17.000;2023-06-14T01:41:43;9.57;;;4.05;;
54197;SDS011;40105;52.366;17.000;2023-06-14T01:44:11;7.70;;;5.03;;
54197;SDS011;40105;52.366;17.000;2023-06-14T01:46:37;11.98;;;4.63;;
54197;SDS011;40105;52.366;17.000;2023-06-14T01:49:03;13.23;;;4.85;;
54197;SDS011;40105;52.366;17.000;2023-06-14T01:51:28;9.13;;;4.32;;
54197;SDS011;40105;52.366;17.000;2023-06-14T01:53:54;7.00;;;4.47;;
54197;SDS011;40105;52.366;17.000;2023-06-14T01:56:20;8.45;;;4.47;;
54197;SDS011;40105;52.366;17.000;2023-06-14T01:58:46;6.95;;;4.20;;
54197;SDS011;40105;52.366;17.000;2023-06-14T02:01:13;7.70;;;3.78;;
54197;SDS011;40105;52.366;17.000;2023-06-14T02:03:41;16.35;;;4.70;;
54197;SDS011;40105;52.366;17.000;2023-06-14T02:06:07;7.50;;;4.78;;
54197;SDS011;40105;52.366;17.000;2023-06-14T02:08:32;10.57;;;5.05;;
54197;SDS011;40105;52.366;17.000;2023-06-14T02:10:58;12.15;;;4.70;;
54197;SDS011;40105;52.366;17.000;2023-06-14T02:13:23;7.25;;;4.93;;
54197;SDS011;40105;52.366;17.000;2023-06-14T02:15:48;9.50;;;5.40;;
54197;SDS011;40105;52.366;17.000;2023-06-14T02:18:16;10.00;;;5.72;;
54197;SDS011;40105;52.366;17.000;2023-06-14T02:20:41;18.45;;;6.75;;
54197;SDS011;40105;52.366;17.000;2023-06-14T02:23:06;6.47;;;4.20;;
54197;SDS011;40105;52.366;17.000;2023-06-14T02:25:32;8.80;;;5.00;;
54197;SDS011;40105;52.366;17.000;2023-06-14T02:27:57;8.07;;;4.57;;
54197;SDS011;40105;52.366;17.000;2023-06-14T02:30:23;7.07;;;4.82;;
54197;SDS011;40105;52.366;17.000;2023-06-14T02:32:48;11.52;;;5.82;;
54197;SDS011;40105;52.366;17.000;2023-06-14T02:35:16;7.68;;;5.15;;
54197;SDS011;40105;52.366;17.000;2023-06-14T02:37:41;10.52;;;5.60;;
54197;SDS011;40105;52.366;17.000;2023-06-14T02:40:07;10.50;;;5.45;;
54197;SDS011;40105;52.366;17.000;2023-06-14T02:42:34;8.85;;;4.95;;
54197;SDS011;40105;52.366;17.000;2023-06-14T02:44:59;7.47;;;4.95;;
54197;SDS011;40105;52.366;17.000;2023-06-14T02:47:25;23.17;;;4.85;;
54197;SDS011;40105;52.366;17.000;2023-06-14T02:49:50;7.72;;;4.97;;
54197;SDS011;40105;52.366;17.000;2023-06-14T02:52:16;6.05;;;4.05;;
54197;SDS011;40105;52.366;17.000;2023-06-14T02:54:41;8.48;;;5.03;;
54197;SDS011;40105;52.366;17.000;2023-06-14T02:57:07;8.63;;;5.85;;
54197;SDS011;40105;52.366;17.000;2023-06-14T02:59:33;7.80;;;4.63;;
54197;SDS011;40105;52.366;17.000;2023-06-14T03:01:58;8.60;;;5.03;;
54197;SDS011;40105;52.366;17.000;2023-06-14T03:04:24;9.63;;;4.68;;
54197;SDS011;40105;52.366;17.000;2023-06-14T03:06:50;8.98;;;5.15;;
54197;SDS011;40105;52.366;17.000;2023-06-14T03:09:16;13.48;;;4.88;;
54197;SDS011;40105;52.366;17.000;2023-06-14T03:11:41;14.60;;;5.85;;
54197;SDS011;40105;52.366;17.000;2023-06-14T03:14:07;14.23;;;5.35;;
54197;SDS011;40105;52.366;17.000;2023-06-14T03:16:33;6.65;;;4.70;;
54197;SDS011;40105;52.366;17.000;2023-06-14T03:18:58;8.60;;;5.07;;
54197;SDS011;40105;52.366;17.000;2023-06-14T03:21:24;7.60;;;4.65;;
54197;SDS011;40105;52.366;17.000;2023-06-14T03:23:50;11.10;;;4.93;;
54197;SDS011;40105;52.366;17.000;2023-06-14T03:26:15;9.23;;;5.60;;
54197;SDS011;40105;52.366;17.000;2023-06-14T03:28:45;10.07;;;4.55;;
54197;SDS011;40105;52.366;17.000;2023-06-14T03:31:11;10.40;;;5.50;;
54197;SDS011;40105;52.366;17.000;2023-06-14T03:33:37;8.32;;;5.55;;
54197;SDS011;40105;52.366;17.000;2023-06-14T03:36:02;7.60;;;5.18;;
54197;SDS011;40105;52.366;17.000;2023-06-14T03:38:28;7.43;;;4.80;;
54197;SDS011;40105;52.366;17.000;2023-06-14T03:40:53;9.45;;;5.00;;
54197;SDS011;40105;52.366;17.000;2023-06-14T03:43:20;8.40;;;4.75;;
54197;SDS011;40105;52.366;17.000;2023-06-14T03:45:45;10.35;;;5.55;;
54197;SDS011;40105;52.366;17.000;2023-06-14T03:48:11;7.18;;;4.82;;
54197;SDS011;40105;52.366;17.000;2023-06-14T03:50:36;9.07;;;5.53;;
54197;SDS011;40105;52.366;17.000;2023-06-14T03:53:05;12.05;;;5.55;;
54197;SDS011;40105;52.366;17.000;2023-06-14T03:55:31;10.23;;;4.90;;
54197;SDS011;40105;52.366;17.000;2023-06-14T03:57:56;16.10;;;5.00;;
54197;SDS011;40105;52.366;17.000;2023-06-14T04:00:22;7.93;;;5.00;;
54197;SDS011;40105;52.366;17.000;2023-06-14T04:02:48;25.80;;;6.10;;
54197;SDS011;40105;52.366;17.000;2023-06-14T04:05:13;9.90;;;5.38;;
54197;SDS011;40105;52.366;17.000;2023-06-14T04:07:41;12.15;;;5.43;;
54197;SDS011;40105;52.366;17.000;2023-06-14T04:10:09;9.57;;;4.63;;
54197;SDS011;40105;52.366;17.000;2023-06-14T04:12:36;9.75;;;5.43;;
54197;SDS011;40105;52.366;17.000;2023-06-14T04:15:01;13.83;;;5.40;;
54197;SDS011;40105;52.366;17.000;2023-06-14T04:17:26;10.18;;;5.03;;
54197;SDS011;40105;52.366;17.000;2023-06-14T04:19:52;17.70;;;6.00;;
54197;SDS011;40105;52.366;17.000;2023-06-14T04:22:17;8.63;;;5.20;;
54197;SDS011;40105;52.366;17.000;2023-06-14T04:24:43;10.98;;;5.13;;
54197;SDS011;40105;52.366;17.000;2023-06-14T04:27:09;8.85;;;5.18;;
54197;SDS011;40105;52.366;17.000;2023-06-14T04:29:34;9.23;;;5.43;;
54197;SDS011;40105;52.366;17.000;2023-06-14T04:32:01;9.05;;;5.78;;
54197;SDS011;40105;52.366;17.000;2023-06-14T04:34:26;7.78;;;4.95;;
54197;SDS011;40105;52.366;17.000;2023-06-14T04:36:54;9.65;;;4.65;;
54197;SDS011;40105;52.366;17.000;2023-06-14T04:39:24;15.50;;;5.03;;
54197;SDS011;40105;52.366;17.000;2023-06-14T04:41:51;12.27;;;5.03;;
54197;SDS011;40105;52.366;17.000;2023-06-14T04:44:17;9.40;;;5.40;;
54197;SDS011;40105;52.366;17.000;2023-06-14T04:46:43;11.63;;;5.38;;
54197;SDS011;40105;52.366;17.000;2023-06-14T04:49:17;13.15;;;5.53;;
54197;SDS011;40105;52.366;17.000;2023-06-14T04:54:08;6.97;;;5.05;;
54197;SDS011;40105;52.366;17.000;2023-06-14T04:56:40;10.95;;;5.78;;
54197;SDS011;40105;52.366;17.000;2023-06-14T04:59:08;9.00;;;4.57;;
54197;SDS011;40105;52.366;17.000;2023-06-14T05:01:34;9.27;;;5.03;;
54197;SDS011;40105;52.366;17.000;2023-06-14T05:03:59;8.73;;;5.15;;
54197;SDS011;40105;52.366;17.000;2023-06-14T05:06:25;8.75;;;4.90;;
54197;SDS011;40105;52.366;17.000;2023-06-14T05:08:52;8.77;;;5.80;;
54197;SDS011;40105;52.366;17.000;2023-06-14T05:11:17;10.32;;;5.28;;
54197;SDS011;40105;52.366;17.000;2023-06-14T05:13:43;7.32;;;4.20;;
54197;SDS011;40105;52.366;17.000;2023-06-14T05:16:09;13.98;;;4.75;;
54197;SDS011;40105;52.366;17.000;2023-06-14T05:18:36;10.07;;;4.45;;
54197;SDS011;40105;52.366;17.000;2023-06-14T05:21:02;6.55;;;4.07;;
54197;SDS011;40105;52.366;17.000;2023-06-14T05:23:29;20.08;;;5.90;;
54197;SDS011;40105;52.366;17.000;2023-06-14T05:25:55;8.48;;;4.57;;
54197;SDS011;40105;52.366;17.000;2023-06-14T05:28:21;8.63;;;5.15;;
54197;SDS011;40105;52.366;17.000;2023-06-14T05:30:47;12.10;;;5.55;;
54197;SDS011;40105;52.366;17.000;2023-06-14T05:33:12;7.63;;;5.00;;
54197;SDS011;40105;52.366;17.000;2023-06-14T05:35:37;7.73;;;4.53;;
54197;SDS011;40105;52.366;17.000;2023-06-14T05:38:03;7.10;;;4.50;;
54197;SDS011;40105;52.366;17.000;2023-06-14T05:40:28;12.80;;;4.38;;
54197;SDS011;40105;52.366;17.000;2023-06-14T05:42:53;10.50;;;5.22;;
54197;SDS011;40105;52.366;17.000;2023-06-14T05:45:19;11.77;;;5.43;;
54197;SDS011;40105;52.366;17.000;2023-06-14T05:47:44;15.73;;;5.00;;
54197;SDS011;40105;52.366;17.000;2023-06-14T05:50:09;9.65;;;4.70;;
54197;SDS011;40105;52.366;17.000;2023-06-14T05:52:35;11.77;;;5.15;;
54197;SDS011;40105;52.366;17.000;2023-06-14T05:55:01;8.07;;;4.80;;
54197;SDS011;40105;52.366;17.000;2023-06-14T05:57:28;12.10;;;4.55;;
54197;SDS011;40105;52.366;17.000;2023-06-14T05:59:53;9.18;;;4.15;;
54197;SDS011;40105;52.366;17.000;2023-06-14T06:02:19;8.52;;;4.63;;
54197;SDS011;40105;52.366;17.000;2023-06-14T06:04:44;8.18;;;4.65;;
54197;SDS011;40105;52.366;17.000;2023-06-14T06:07:10;6.35;;;4.07;;
54197;SDS011;40105;52.366;17.000;2023-06-14T06:09:35;13.68;;;4.53;;
54197;SDS011;40105;52.366;17.000;2023-06-14T06:12:00;12.70;;;5.57;;
54197;SDS011;40105;52.366;17.000;2023-06-14T06:14:26;11.23;;;5.20;;
54197;SDS011;40105;52.366;17.000;2023-06-14T06:16:51;8.30;;;4.70;;
54197;SDS011;40105;52.366;17.000;2023-06-14T06:19:17;9.32;;;4.60;;
54197;SDS011;40105;52.366;17.000;2023-06-14T06:21:43;12.48;;;5.18;;
54197;SDS011;40105;52.366;17.000;2023-06-14T06:24:08;13.47;;;5.00;;
54197;SDS011;40105;52.366;17.000;2023-06-14T06:26:33;12.45;;;5.25;;
54197;SDS011;40105;52.366;17.000;2023-06-14T06:28:59;12.65;;;5.10;;
54197;SDS011;40105;52.366;17.000;2023-06-14T06:31:24;9.57;;;5.60;;
54197;SDS011;40105;52.366;17.000;2023-06-14T06:33:52;12.05;;;5.32;;
54197;SDS011;40105;52.366;17.000;2023-06-14T06:36:19;15.13;;;5.57;;
54197;SDS011;40105;52.366;17.000;2023-06-14T06:38:45;11.77;;;5.80;;
54197;SDS011;40105;52.366;17.000;2023-06-14T06:41:10;11.60;;;5.45;;
54197;SDS011;40105;52.366;17.000;2023-06-14T06:43:35;12.80;;;5.95;;
54197;SDS011;40105;52.366;17.000;2023-06-14T06:46:01;10.27;;;6.05;;
54197;SDS011;40105;52.366;17.000;2023-06-14T06:48:27;11.07;;;6.00;;
54197;SDS011;40105;52.366;17.000;2023-06-14T06:50:52;13.80;;;6.25;;
54197;SDS011;40105;52.366;17.000;2023-06-14T06:53:17;13.10;;;5.85;;
54197;SDS011;40105;52.366;17.000;2023-06-14T06:55:43;11.38;;;5.70;;
54197;SDS011;40105;52.366;17.000;2023-06-14T06:58:09;13.60;;;5.90;;
54197;SDS011;40105;52.366;17.000;2023-06-14T07:00:34;8.15;;;5.15;;
54197;SDS011;40105;52.366;17.000;2023-06-14T07:03:00;8.50;;;5.13;;
54197;SDS011;40105;52.366;17.000;2023-06-14T07:05:26;9.77;;;5.00;;
54197;SDS011;40105;52.366;17.000;2023-06-14T07:07:51;10.45;;;4.47;;
54197;SDS011;40105;52.366;17.000;2023-06-14T07:10:17;7.00;;;4.30;;
54197;SDS011;40105;52.366;17.000;2023-06-14T07:12:43;10.25;;;5.35;;
54197;SDS011;40105;52.366;17.000;2023-06-14T07:15:08;11.75;;;5.53;;
54197;SDS011;40105;52.366;17.000;2023-06-14T07:17:34;10.80;;;5.32;;
54197;SDS011;40105;52.366;17.000;2023-06-14T07:20:01;11.63;;;4.93;;
54197;SDS011;40105;52.366;17.000;2023-06-14T07:22:32;7.75;;;4.57;;
54197;SDS011;40105;52.366;17.000;2023-06-14T07:24:57;10.80;;;4.95;;
54197;SDS011;40105;52.366;17.000;2023-06-14T07:27:23;9.03;;;4.93;;
54197;SDS011;40105;52.366;17.000;2023-06-14T07:29:48;11.13;;;5.15;;
54197;SDS011;40105;52.366;17.000;2023-06-14T07:32:13;9.57;;;4.90;;
54197;SDS011;40105;52.366;17.000;2023-06-14T07:34:39;10.47;;;4.90;;
54197;SDS011;40105;52.366;17.000;2023-06-14T07:37:04;10.48;;;4.38;;
54197;SDS011;40105;52.366;17.000;2023-06-14T07:39:30;6.32;;;4.10;;
54197;SDS011;40105;52.366;17.000;2023-06-14T07:41:55;8.10;;;4.53;;
54197;SDS011;40105;52.366;17.000;2023-06-14T07:44:20;10.23;;;4.47;;
54197;SDS011;40105;52.366;17.000;2023-06-14T07:46:45;11.83;;;5.80;;
54197;SDS011;40105;52.366;17.000;2023-06-14T07:49:14;12.80;;;4.28;;
54197;SDS011;40105;52.366;17.000;2023-06-14T07:51:39;9.07;;;4.28;;
54197;SDS011;40105;52.366;17.000;2023-06-14T07:54:05;8.05;;;3.67;;
54197;SDS011;40105;52.366;17.000;2023-06-14T07:56:32;7.10;;;3.35;;
54197;SDS011;40105;52.366;17.000;2023-06-14T07:58:57;13.13;;;3.63;;
54197;SDS011;40105;52.366;17.000;2023-06-14T08:01:23;11.03;;;4.10;;
54197;SDS011;40105;52.366;17.000;2023-06-14T08:03:50;10.40;;;4.03;;
54197;SDS011;40105;52.366;17.000;2023-06-14T08:06:15;13.02;;;5.18;;
54197;SDS011;40105;52.366;17.000;2023-06-14T08:08:41;7.03;;;4.13;;
54197;SDS011;40105;52.366;17.000;2023-06-14T08:11:06;7.85;;;4.75;;
54197;SDS011;40105;52.366;17.000;2023-06-14T08:13:31;15.53;;;5.60;;
54197;SDS011;40105;52.366;17.000;2023-06-14T08:15:57;13.48;;;5.30;;
54197;SDS011;40105;52.366;17.000;2023-06-14T08:18:23;9.50;;;5.22;;
54197;SDS011;40105;52.366;17.000;2023-06-14T08:20:48;17.55;;;5.85;;
54197;SDS011;40105;52.366;17.000;2023-06-14T08:23:15;8.52;;;5.22;;
54197;SDS011;40105;52.366;17.000;2023-06-14T08:25:43;5.80;;;3.95;;
54197;SDS011;40105;52.366;17.000;2023-06-14T08:28:09;11.20;;;4.90;;
54197;SDS011;40105;52.366;17.000;2023-06-14T08:30:34;10.57;;;4.43;;
54197;SDS011;40105;52.366;17.000;2023-06-14T08:33:00;10.55;;;5.28;;
54197;SDS011;40105;52.366;17.000;2023-06-14T08:35:26;19.58;;;4.90;;
54197;SDS011;40105;52.366;17.000;2023-06-14T08:37:51;13.30;;;5.73;;
54197;SDS011;40105;52.366;17.000;2023-06-14T08:42:47;14.60;;;4.78;;
54197;SDS011;40105;52.366;17.000;2023-06-14T08:45:13;9.95;;;3.08;;
54197;SDS011;40105;52.366;17.000;2023-06-14T08:47:38;6.30;;;3.00;;
54197;SDS011;40105;52.366;17.000;2023-06-14T08:50:05;9.63;;;2.33;;
54197;SDS011;40105;52.366;17.000;2023-06-14T08:52:31;8.13;;;2.75;;
54197;SDS011;40105;52.366;17.000;2023-06-14T08:54:59;8.23;;;2.95;;
54197;SDS011;40105;52.366;17.000;2023-06-14T08:57:25;7.88;;;3.15;;
54197;SDS011;40105;52.366;17.000;2023-06-14T08:59:55;10.43;;;4.32;;
54197;SDS011;40105;52.366;17.000;2023-06-14T09:02:21;7.28;;;2.88;;
54197;SDS011;40105;52.366;17.000;2023-06-14T09:04:47;6.93;;;2.70;;
54197;SDS011;40105;52.366;17.000;2023-06-14T09:07:14;5.82;;;2.63;;
54197;SDS011;40105;52.366;17.000;2023-06-14T09:09:40;6.78;;;2.83;;
54197;SDS011;40105;52.366;17.000;2023-06-14T09:12:07;5.88;;;3.00;;
54197;SDS011;40105;52.366;17.000;2023-06-14T09:14:35;7.03;;;2.88;;
54197;SDS011;40105;52.366;17.000;2023-06-14T09:17:03;5.85;;;2.42;;
54197;SDS011;40105;52.366;17.000;2023-06-14T09:19:29;4.65;;;2.38;;
54197;SDS011;40105;52.366;17.000;2023-06-14T09:21:54;10.80;;;3.15;;
54197;SDS011;40105;52.366;17.000;2023-06-14T09:24:20;5.30;;;3.00;;
54197;SDS011;40105;52.366;17.000;2023-06-14T09:26:50;7.47;;;2.78;;
54197;SDS011;40105;52.366;17.000;2023-06-14T09:29:16;13.68;;;2.80;;
54197;SDS011;40105;52.366;17.000;2023-06-14T09:31:41;4.38;;;2.72;;
54197;SDS011;40105;52.366;17.000;2023-06-14T09:34:07;7.43;;;2.53;;
54197;SDS011;40105;52.366;17.000;2023-06-14T09:36:32;6.00;;;2.37;;
54197;SDS011;40105;52.366;17.000;2023-06-14T09:38:58;9.73;;;2.53;;
54197;SDS011;40105;52.366;17.000;2023-06-14T09:41:35;5.30;;;2.75;;
54197;SDS011;40105;52.366;17.000;2023-06-14T09:44:01;24.13;;;3.38;;
54197;SDS011;40105;52.366;17.000;2023-06-14T09:46:28;14.85;;;3.20;;
54197;SDS011;40105;52.366;17.000;2023-06-14T09:48:55;6.30;;;2.90;;
54197;SDS011;40105;52.366;17.000;2023-06-14T09:51:21;10.13;;;3.10;;
54197;SDS011;40105;52.366;17.000;2023-06-14T09:53:48;8.40;;;3.05;;
54197;SDS011;40105;52.366;17.000;2023-06-14T09:56:15;8.23;;;3.70;;
54197;SDS011;40105;52.366;17.000;2023-06-14T09:59:01;10.00;;;3.33;;
54197;SDS011;40105;52.366;17.000;2023-06-14T10:01:35;6.35;;;2.90;;
54197;SDS011;40105;52.366;17.000;2023-06-14T10:04:02;11.10;;;3.22;;
54197;SDS011;40105;52.366;17.000;2023-06-14T10:06:29;5.55;;;2.95;;
54197;SDS011;40105;52.366;17.000;2023-06-14T10:08:56;7.28;;;3.47;;
54197;SDS011;40105;52.366;17.000;2023-06-14T10:11:24;3.97;;;2.35;;
54197;SDS011;40105;52.366;17.000;2023-06-14T10:13:50;6.13;;;2.97;;
54197;SDS011;40105;52.366;17.000;2023-06-14T10:16:32;13.43;;;3.60;;
54197;SDS011;40105;52.366;17.000;2023-06-14T10:19:01;8.98;;;3.42;;
54197;SDS011;40105;52.366;17.000;2023-06-14T10:21:41;5.35;;;3.00;;
54197;SDS011;40105;52.366;17.000;2023-06-14T10:24:09;8.02;;;2.80;;
54197;SDS011;40105;52.366;17.000;2023-06-14T10:26:49;7.07;;;3.17;;
54197;SDS011;40105;52.366;17.000;2023-06-14T10:29:16;7.55;;;3.13;;
54197;SDS011;40105;52.366;17.000;2023-06-14T10:31:45;5.93;;;2.87;;
54197;SDS011;40105;52.366;17.000;2023-06-14T10:34:12;8.48;;;2.97;;
54197;SDS011;40105;52.366;17.000;2023-06-14T10:36:40;10.88;;;3.17;;
54197;SDS011;40105;52.366;17.000;2023-06-14T10:39:08;11.15;;;3.13;;
54197;SDS011;40105;52.366;17.000;2023-06-14T10:41:38;8.40;;;2.83;;
54197;SDS011;40105;52.366;17.000;2023-06-14T10:46:38;8.15;;;3.05;;
54197;SDS011;40105;52.366;17.000;2023-06-14T10:49:38;5.20;;;2.90;;
54197;SDS011;40105;52.366;17.000;2023-06-14T10:52:08;6.70;;;3.55;;
54197;SDS011;40105;52.366;17.000;2023-06-14T10:54:37;6.03;;;3.17;;
54197;SDS011;40105;52.366;17.000;2023-06-14T10:57:02;7.10;;;3.42;;
54197;SDS011;40105;52.366;17.000;2023-06-14T10:59:32;7.72;;;2.90;;
54197;SDS011;40105;52.366;17.000;2023-06-14T11:04:47;9.55;;;3.13;;
54197;SDS011;40105;52.366;17.000;2023-06-14T11:10:04;6.22;;;3.05;;
54197;SDS011;40105;52.366;17.000;2023-06-14T11:12:35;7.47;;;3.00;;
54197;SDS011;40105;52.366;17.000;2023-06-14T11:15:01;9.73;;;3.03;;
54197;SDS011;40105;52.366;17.000;2023-06-14T11:17:27;4.75;;;2.30;;
54197;SDS011;40105;52.366;17.000;2023-06-14T11:20:12;8.48;;;2.90;;
54197;SDS011;40105;52.366;17.000;2023-06-14T11:22:44;4.38;;;2.42;;
54197;SDS011;40105;52.366;17.000;2023-06-14T11:25:10;6.07;;;2.80;;
54197;SDS011;40105;52.366;17.000;2023-06-14T11:27:36;8.70;;;3.05;;
54197;SDS011;40105;52.366;17.000;2023-06-14T11:30:02;3.88;;;2.53;;
54197;SDS011;40105;52.366;17.000;2023-06-14T11:32:27;8.95;;;2.70;;
54197;SDS011;40105;52.366;17.000;2023-06-14T11:34:52;5.17;;;2.33;;
54197;SDS011;40105;52.366;17.000;2023-06-14T11:37:18;6.97;;;2.97;;
54197;SDS011;40105;52.366;17.000;2023-06-14T11:39:43;7.27;;;2.60;;
54197;SDS011;40105;52.366;17.000;2023-06-14T11:42:13;6.80;;;3.17;;
54197;SDS011;40105;52.366;17.000;2023-06-14T11:44:40;6.03;;;2.78;;
54197;SDS011;40105;52.366;17.000;2023-06-14T11:47:05;14.90;;;3.88;;
54197;SDS011;40105;52.366;17.000;2023-06-14T11:49:35;7.40;;;3.03;;
54197;SDS011;40105;52.366;17.000;2023-06-14T11:52:01;5.35;;;3.22;;
54197;SDS011;40105;52.366;17.000;2023-06-14T11:54:26;5.03;;;3.00;;
54197;SDS011;40105;52.366;17.000;2023-06-14T11:56:51;5.67;;;2.70;;
54197;SDS011;40105;52.366;17.000;2023-06-14T11:59:17;14.23;;;2.95;;
54197;SDS011;40105;52.366;17.000;2023-06-14T12:01:42;12.50;;;2.95;;
54197;SDS011;40105;52.366;17.000;2023-06-14T12:04:08;4.88;;;2.92;;
54197;SDS011;40105;52.366;17.000;2023-06-14T12:06:33;9.10;;;2.87;;
54197;SDS011;40105;52.366;17.000;2023-06-14T12:09:04;6.40;;;2.45;;
54197;SDS011;40105;52.366;17.000;2023-06-14T12:11:32;5.47;;;2.67;;
54197;SDS011;40105;52.366;17.000;2023-06-14T12:13:58;8.60;;;2.95;;
54197;SDS011;40105;52.366;17.000;2023-06-14T12:16:29;6.93;;;2.90;;
54197;SDS011;40105;52.366;17.000;2023-06-14T12:18:56;17.52;;;3.35;;
54197;SDS011;40105;52.366;17.000;2023-06-14T12:21:22;9.48;;;3.20;;
54197;SDS011;40105;52.366;17.000;2023-06-14T12:23:49;10.20;;;3.17;;
54197;SDS011;40105;52.366;17.000;2023-06-14T12:26:16;5.03;;;2.97;;
54197;SDS011;40105;52.366;17.000;2023-06-14T12:28:43;5.70;;;2.60;;
54197;SDS011;40105;52.366;17.000;2023-06-14T12:31:11;5.90;;;3.05;;
54197;SDS011;40105;52.366;17.000;2023-06-14T12:33:37;12.93;;;3.10;;
54197;SDS011;40105;52.366;17.000;2023-06-14T12:36:03;9.88;;;3.25;;
54197;SDS011;40105;52.366;17.000;2023-06-14T12:38:29;5.78;;;3.00;;
54197;SDS011;40105;52.366;17.000;2023-06-14T12:40:55;6.37;;;3.20;;
54197;SDS011;40105;52.366;17.000;2023-06-14T12:43:20;11.47;;;2.90;;
54197;SDS011;40105;52.366;17.000;2023-06-14T12:45:45;5.30;;;2.67;;
54197;SDS011;40105;52.366;17.000;2023-06-14T12:48:11;5.88;;;3.28;;
54197;SDS011;40105;52.366;17.000;2023-06-14T12:50:36;6.13;;;2.67;;
54197;SDS011;40105;52.366;17.000;2023-06-14T12:53:01;5.60;;;2.43;;
54197;SDS011;40105;52.366;17.000;2023-06-14T12:55:26;3.90;;;2.43;;
54197;SDS011;40105;52.366;17.000;2023-06-14T12:57:52;9.73;;;2.60;;
54197;SDS011;40105;52.366;17.000;2023-06-14T13:00:17;4.10;;;2.23;;
54197;SDS011;40105;52.366;17.000;2023-06-14T13:02:43;5.70;;;2.67;;
54197;SDS011;40105;52.366;17.000;2023-06-14T13:05:09;12.02;;;2.67;;
54197;SDS011;40105;52.366;17.000;2023-06-14T13:07:34;5.57;;;2.30;;
54197;SDS011;40105;52.366;17.000;2023-06-14T13:10:00;9.15;;;2.63;;
54197;SDS011;40105;52.366;17.000;2023-06-14T13:12:25;10.27;;;2.50;;
54197;SDS011;40105;52.366;17.000;2023-06-14T13:14:50;6.70;;;2.10;;
54197;SDS011;40105;52.366;17.000;2023-06-14T13:17:16;7.57;;;2.23;;
54197;SDS011;40105;52.366;17.000;2023-06-14T13:19:41;6.70;;;2.00;;
54197;SDS011;40105;52.366;17.000;2023-06-14T13:22:07;7.90;;;2.30;;
54197;SDS011;40105;52.366;17.000;2023-06-14T13:24:33;7.97;;;2.72;;
54197;SDS011;40105;52.366;17.000;2023-06-14T13:26:58;6.47;;;2.63;;
54197;SDS011;40105;52.366;17.000;2023-06-14T13:29:24;6.18;;;2.33;;
54197;SDS011;40105;52.366;17.000;2023-06-14T13:31:49;3.83;;;2.63;;
54197;SDS011;40105;52.366;17.000;2023-06-14T13:34:15;6.57;;;2.40;;
54197;SDS011;40105;52.366;17.000;2023-06-14T13:36:40;5.55;;;2.72;;
54197;SDS011;40105;52.366;17.000;2023-06-14T13:39:05;12.45;;;2.95;;
54197;SDS011;40105;52.366;17.000;2023-06-14T13:41:31;6.68;;;2.08;;
54197;SDS011;40105;52.366;17.000;2023-06-14T13:43:58;8.82;;;2.00;;
54197;SDS011;40105;52.366;17.000;2023-06-14T13:46:24;4.75;;;2.28;;
54197;SDS011;40105;52.366;17.000;2023-06-14T13:48:50;8.13;;;2.17;;
54197;SDS011;40105;52.366;17.000;2023-06-14T13:51:15;7.67;;;2.67;;
54197;SDS011;40105;52.366;17.000;2023-06-14T13:53:42;9.88;;;2.80;;
54197;SDS011;40105;52.366;17.000;2023-06-14T13:56:08;10.43;;;2.90;;
54197;SDS011;40105;52.366;17.000;2023-06-14T13:58:33;4.33;;;1.93;;
54197;SDS011;40105;52.366;17.000;2023-06-14T14:00:58;8.90;;;2.33;;
54197;SDS011;40105;52.366;17.000;2023-06-14T14:03:24;4.32;;;2.47;;
54197;SDS011;40105;52.366;17.000;2023-06-14T14:05:49;7.30;;;2.92;;
54197;SDS011;40105;52.366;17.000;2023-06-14T14:08:15;7.80;;;2.80;;
54197;SDS011;40105;52.366;17.000;2023-06-14T14:10:40;6.37;;;2.70;;
54197;SDS011;40105;52.366;17.000;2023-06-14T14:13:06;10.25;;;2.92;;
54197;SDS011;40105;52.366;17.000;2023-06-14T14:15:31;20.30;;;4.03;;
54197;SDS011;40105;52.366;17.000;2023-06-14T14:17:59;5.60;;;2.53;;
54197;SDS011;40105;52.366;17.000;2023-06-14T14:20:24;4.23;;;1.90;;
54197;SDS011;40105;52.366;17.000;2023-06-14T14:22:50;11.93;;;2.10;;
54197;SDS011;40105;52.366;17.000;2023-06-14T14:25:15;6.73;;;1.67;;
54197;SDS011;40105;52.366;17.000;2023-06-14T14:27:40;3.17;;;1.60;;
54197;SDS011;40105;52.366;17.000;2023-06-14T14:30:06;2.42;;;1.45;;
54197;SDS011;40105;52.366;17.000;2023-06-14T14:32:31;3.05;;;1.50;;
54197;SDS011;40105;52.366;17.000;2023-06-14T14:34:57;5.80;;;1.67;;
54197;SDS011;40105;52.366;17.000;2023-06-14T14:37:23;11.82;;;1.70;;
54197;SDS011;40105;52.366;17.000;2023-06-14T14:39:48;3.45;;;1.70;;